Podhale (bahama Islands) — C6TX9 — position and weather

sailwx.info

Track history (hours):
 
Tides and Currents Weather Stations Pressure Air Temp Water Temp Dewpoint Dewpoint Depression Visibility Wind Speed Wind Dir Waves Ship Positions

Podhale (bahama Islands)

Last reported at 2014-Sep-24 07:33 UTC. Time now 2014-Oct-01 00:02 UTC.
Position N 40°57' E 028°59'.

Length 190 m; beam 24 m.

Type: Cargo ship. MMSI: 311831000.

Date/timePositionNaut miles runAvg speedWind from/ knotsBaromVisibWave heightAir tempDewpointWater temp
2014-Sep-24 07:33N 40°57' E 028°59'8 8.4
2014-Sep-24 06:33N 40°49' E 028°56'0 0.3
2014-Sep-24 05:32N 40°49' E 028°56'0 0.4
2014-Sep-24 04:33N 40°49' E 028°57'0 0.1
2014-Sep-24 03:32N 40°49' E 028°57'1 0.6
2014-Sep-24 02:31N 40°49' E 028°57'1 1.2
2014-Sep-24 01:33N 40°49' E 028°59'2 1.5
2014-Sep-24 00:33N 40°48' E 029°00'0 0.2
2014-Sep-23 23:33N 40°47' E 029°00'0 0.4
2014-Sep-23 22:32N 40°47' E 028°60'1 1.2
2014-Sep-23 21:33N 40°46' E 028°59'1 1.0
2014-Sep-23 20:31N 40°47' E 028°57'1 0.8
2014-Sep-23 19:31N 40°47' E 028°56'0 0.4
2014-Sep-23 18:33N 40°47' E 028°56'1 0.6
2014-Sep-23 17:27N 40°48' E 028°56'1 0.7
2014-Sep-23 16:33N 40°49' E 028°56'4 4.0
2014-Sep-23 15:32N 40°50' E 028°51'180 9.5
2014-Sep-22 20:33N 39°18' E 025°29'1711.9
2014-Sep-22 19:06N 39°03' E 025°19'611.7
2014-Sep-22 18:33N 38°57' E 025°16'1211.8
2014-Sep-22 17:33N 38°46' E 025°09'5911.6
2014-Sep-22 12:30N 37°54' E 024°34'1112.0
2014-Sep-22 11:33N 37°47' E 024°23'4611.3
2014-Sep-22 07:31N 37°10' E 023°50'1111.4
2014-Sep-22 06:33N 37°01' E 023°42'1111.2
2014-Sep-22 05:33N 36°51' E 023°35'1110.9
2014-Sep-22 04:33N 36°42' E 023°28'1110.6
2014-Sep-22 03:33N 36°32' E 023°21'37411.2
2014-Sep-20 18:09N 36°32' E 015°36'1011.8
2014-Sep-20 17:16N 36°32' E 015°23'1211.7
2014-Sep-20 16:13N 36°33' E 015°08'2011.6
2014-Sep-20 14:30N 36°36' E 014°43'1111.3
2014-Sep-20 13:33N 36°39' E 014°30'1211.7
2014-Sep-20 12:33N 36°41' E 014°16'1212.1
2014-Sep-20 11:33N 36°44' E 014°01'1212.0
2014-Sep-20 10:33N 36°46' E 013°47'1211.6
2014-Sep-20 09:33N 36°49' E 013°32'1111.3
2014-Sep-20 08:33N 36°52' E 013°19'1110.8
2014-Sep-20 07:32N 36°54' E 013°05'1110.9
2014-Sep-20 06:33N 36°56' E 012°52'4511.0
2014-Sep-20 02:28N 37°07' E 011°58'3610.8
2014-Sep-19 23:08N 37°20' E 011°16'610.8
2014-Sep-19 22:33N 37°22' E 011°09'1110.6
2014-Sep-19 21:33N 37°25' E 010°56'1110.5
2014-Sep-19 20:33N 37°28' E 010°43'1110.8
2014-Sep-19 19:33N 37°30' E 010°30'1111.1
2014-Sep-19 18:33N 37°33' E 010°16'2311.3
2014-Sep-19 16:33N 37°30' E 009°48'1211.5
2014-Sep-19 15:33N 37°27' E 009°34'1211.4
2014-Sep-19 14:32N 37°24' E 009°20'1111.5
2014-Sep-19 13:33N 37°22' E 009°06'1211.5
2014-Sep-19 12:33N 37°19' E 008°51'1111.1
2014-Sep-19 11:33N 37°18' E 008°38'1110.9
2014-Sep-19 10:33N 37°18' E 008°24'1110.9
2014-Sep-19 09:33N 37°18' E 008°10'1111.0
2014-Sep-19 08:33N 37°18' E 007°56'13311.1
2014-Sep-18 20:33N 37°13' E 005°09'3611.6
2014-Sep-18 17:28N 37°09' E 004°25'47011.7
2014-Sep-17 01:17N 36°00' W 005°15'1013.6
2014-Sep-17 00:33N 35°57' W 005°27'  
Track history (hours):
 
Tides and Currents Weather Stations Pressure Air Temp Water Temp Dewpoint Dewpoint Depression Visibility Wind Speed Wind Dir Waves Ship Positions

Podhale (bahama Islands)

Last reported at 2014-Sep-24 07:33 UTC. Time now 2014-Oct-01 00:02 UTC.
Position N 40°57' E 028°59'.

Length 190 m; beam 24 m.

Type: Cargo ship. MMSI: 311831000.

Date/timePositionNaut miles runAvg speedWind from/ knotsBaromVisibWave heightAir tempDewpointWater temp
2014-Sep-24 07:33N 40°57' E 028°59'8 8.4
2014-Sep-24 06:33N 40°49' E 028°56'0 0.3
2014-Sep-24 05:32N 40°49' E 028°56'0 0.4
2014-Sep-24 04:33N 40°49' E 028°57'0 0.1
2014-Sep-24 03:32N 40°49' E 028°57'1 0.6
2014-Sep-24 02:31N 40°49' E 028°57'1 1.2
2014-Sep-24 01:33N 40°49' E 028°59'2 1.5
2014-Sep-24 00:33N 40°48' E 029°00'0 0.2
2014-Sep-23 23:33N 40°47' E 029°00'0 0.4
2014-Sep-23 22:32N 40°47' E 028°60'1 1.2
2014-Sep-23 21:33N 40°46' E 028°59'1 1.0
2014-Sep-23 20:31N 40°47' E 028°57'1 0.8
2014-Sep-23 19:31N 40°47' E 028°56'0 0.4
2014-Sep-23 18:33N 40°47' E 028°56'1 0.6
2014-Sep-23 17:27N 40°48' E 028°56'1 0.7
2014-Sep-23 16:33N 40°49' E 028°56'4 4.0
2014-Sep-23 15:32N 40°50' E 028°51'180 9.5
2014-Sep-22 20:33N 39°18' E 025°29'1711.9
2014-Sep-22 19:06N 39°03' E 025°19'611.7
2014-Sep-22 18:33N 38°57' E 025°16'1211.8
2014-Sep-22 17:33N 38°46' E 025°09'5911.6
2014-Sep-22 12:30N 37°54' E 024°34'1112.0
2014-Sep-22 11:33N 37°47' E 024°23'4611.3
2014-Sep-22 07:31N 37°10' E 023°50'1111.4
2014-Sep-22 06:33N 37°01' E 023°42'1111.2
2014-Sep-22 05:33N 36°51' E 023°35'1110.9
2014-Sep-22 04:33N 36°42' E 023°28'1110.6
2014-Sep-22 03:33N 36°32' E 023°21'37411.2
2014-Sep-20 18:09N 36°32' E 015°36'1011.8
2014-Sep-20 17:16N 36°32' E 015°23'1211.7
2014-Sep-20 16:13N 36°33' E 015°08'2011.6
2014-Sep-20 14:30N 36°36' E 014°43'1111.3
2014-Sep-20 13:33N 36°39' E 014°30'1211.7
2014-Sep-20 12:33N 36°41' E 014°16'1212.1
2014-Sep-20 11:33N 36°44' E 014°01'1212.0
2014-Sep-20 10:33N 36°46' E 013°47'1211.6
2014-Sep-20 09:33N 36°49' E 013°32'1111.3
2014-Sep-20 08:33N 36°52' E 013°19'1110.8
2014-Sep-20 07:32N 36°54' E 013°05'1110.9
2014-Sep-20 06:33N 36°56' E 012°52'4511.0
2014-Sep-20 02:28N 37°07' E 011°58'3610.8
2014-Sep-19 23:08N 37°20' E 011°16'610.8
2014-Sep-19 22:33N 37°22' E 011°09'1110.6
2014-Sep-19 21:33N 37°25' E 010°56'1110.5
2014-Sep-19 20:33N 37°28' E 010°43'1110.8
2014-Sep-19 19:33N 37°30' E 010°30'1111.1
2014-Sep-19 18:33N 37°33' E 010°16'2311.3
2014-Sep-19 16:33N 37°30' E 009°48'1211.5
2014-Sep-19 15:33N 37°27' E 009°34'1211.4
2014-Sep-19 14:32N 37°24' E 009°20'1111.5
2014-Sep-19 13:33N 37°22' E 009°06'1211.5
2014-Sep-19 12:33N 37°19' E 008°51'1111.1
2014-Sep-19 11:33N 37°18' E 008°38'1110.9
2014-Sep-19 10:33N 37°18' E 008°24'1110.9
2014-Sep-19 09:33N 37°18' E 008°10'1111.0
2014-Sep-19 08:33N 37°18' E 007°56'13311.1
2014-Sep-18 20:33N 37°13' E 005°09'3611.6
2014-Sep-18 17:28N 37°09' E 004°25'47011.7
2014-Sep-17 01:17N 36°00' W 005°15'1013.6
2014-Sep-17 00:33N 35°57' W 005°27'  

Dump ship's entire track history